Urie, Wyoming
Current Conditions -  °F | °C
As of 12:35 AM on Thursday 23 Oct 2014 (Local Time) from KFBR Reporting Station
Clear Clear  
Wind Chill: 35°   Ceiling: Unl
Heat Index: 40°   Visibility: NA
Dew Point: 22°   Wind: 8mph
Humidity: 49%   Direction: 260°W
Pressure: 30.27"   Gusts: NA
Location:  41.3257°N, 110.285°W
Report Text: KFBR 230635Z AUTO 26007KT CLR 05/M05 A3027 RMK AO2 T00471053 PWINO
Loading
Personal Weather Stations






























Interactive Weather Map
Tropical Storm Tracking
New forecast layout! Learn more

10-Day Weather Forecast

Advertisements
Track Severe Weather on mobile